Faith Municipal, SD

8:55 AM MDT on September 01, 2014 (GMT -0600)
Philip | Change Station
CLOSE
Current Station
Airport
Location: Philip,
Elevation: 2208 ft
Nearby Weather Stations

Elev 2208 ft 44.05 °N, 101.60 °W | Updated 1 hour ago

Clear
Clear
55 °F
Feels Like 55 °F
N
10
Wind Variable Wind from West

Today
High -- | Low -- °F
--% Chance of Precip.
Yesterday
High -- | Low -- °F
Precip. -- in
6:10 AM 7:25 PM
Waxing Crescent, 41% visible
Pressure 29.87 in
Visibility 10.0 miles
Clouds Clear
Dew Point 52 °F
Humidity 89%
Rainfall 0.00 in
Snow Depth Not available.
UV 1 out of 12
Pollen 8.20 out of 12
Air Quality Not available.
Flu Activity Not available.
METAR KPHP 011355Z AUTO 26009KT 10SM CLR 13/11 A2989 RMK AO2 SLP114 T01280111

More Conditions Fewer Conditions

Pressure 29.87 in
Visibility 10.0 miles
Clouds Clear
Dew Point 52 °F
Humidity 89%
Rainfall 0.00 in
Snow Depth Not available.
UV 1 out of 12
Pollen 8.20 out of 12
Air Quality Not available.
Flu Activity Not available.
METAR KPHP 011355Z AUTO 26009KT 10SM CLR 13/11 A2989 RMK AO2 SLP114 T01280111

More Conditions Fewer Conditions

10-Day Weather Forecast

Almanac

Astronomy

Sep. 01, 2014 Rise Set
Actual Time 6:10 AM MDT 7:25 PM MDT
Civil Twilight 5:39 AM MDT 7:55 PM MDT
Nautical Twilight 5:03 AM MDT 8:31 PM MDT
Astronomical Twilight 4:24 AM MDT 9:10 PM MDT
Moon 1:15 PM MDT 11:09 PM MDT
Length of Visible Light 14h 15m
Length of Day
13h 14m
Tomorrow will be 3m 1s shorter.
Waxing Crescent, 41% of the Moon is Illuminated
Today
Waxing Crescent
Sep 2
First Quarter
Sep 8
Full
Sep 15
Last Quarter
Sep 24
New

Today's Extremes

State Highs State Lows

Community

WunderPhotos

Upload Photos

1,749,253 photos uploaded!

Nearby

Snow Depth

Station Depth Elevation
North Rapid Creek 0 in 6130 ft
Blind Park 0 in 6890 ft

Earthquake Activity

City Distance Mag. Time & Date
No recent earthquake activity has been reported nearby.
Minimum magnitude displayed is 2.5.

Coastal Water Temperatures

Place Temperature
No Stations Reporting

Nearby Weather Stations